Criders, Virginia
Current Conditions -  °F | °C
As of 1:35 PM on Wednesday 26 Nov 2014 (Local Time) from K8W2 Reporting Station
Overcast Overcast  
Wind Chill: 32°   Ceiling: 300
Heat Index: 32°   Visibility: 0.5mi
Dew Point: 32°   Wind: 0mph
Humidity: 99%   Direction: NA
Pressure: 29.95"   Gusts: NA
Location:  38.75°N, 79°W
Report Text: K8W2 261835Z AUTO 00000KT 1/2SM OVC003 00/00 A2995 RMK AO1 P0005 T00020000
Loading
Personal Weather Stations






























Interactive Weather Map New forecast layout! Learn more

10-Day Weather Forecast

Advertisements
Track Severe Weather on mobile